sensor_id;sensor_type;location;lat;lon;timestamp;P1;durP1;ratioP1;P2;durP2;ratioP2
73678;SDS011;61978;52.742;16.962;2023-03-01T00:01:20;110.90;;;58.60;;
73678;SDS011;61978;52.742;16.962;2023-03-01T00:03:47;118.30;;;60.80;;
73678;SDS011;61978;52.742;16.962;2023-03-01T00:06:13;114.30;;;59.40;;
73678;SDS011;61978;52.742;16.962;2023-03-01T00:08:40;117.30;;;60.90;;
73678;SDS011;61978;52.742;16.962;2023-03-01T00:11:15;118.20;;;61.00;;
73678;SDS011;61978;52.742;16.962;2023-03-01T00:13:46;112.60;;;59.80;;
73678;SDS011;61978;52.742;16.962;2023-03-01T00:16:17;113.90;;;61.30;;
73678;SDS011;61978;52.742;16.962;2023-03-01T00:18:45;109.80;;;60.70;;
73678;SDS011;61978;52.742;16.962;2023-03-01T00:21:11;111.40;;;61.60;;
73678;SDS011;61978;52.742;16.962;2023-03-01T00:23:37;107.70;;;59.80;;
73678;SDS011;61978;52.742;16.962;2023-03-01T00:26:07;106.20;;;54.80;;
73678;SDS011;61978;52.742;16.962;2023-03-01T00:28:34;104.40;;;57.30;;
73678;SDS011;61978;52.742;16.962;2023-03-01T00:31:04;102.00;;;54.60;;
73678;SDS011;61978;52.742;16.962;2023-03-01T00:33:30;102.10;;;54.90;;
73678;SDS011;61978;52.742;16.962;2023-03-01T00:35:57;102.60;;;55.10;;
73678;SDS011;61978;52.742;16.962;2023-03-01T00:38:23;105.10;;;55.20;;
73678;SDS011;61978;52.742;16.962;2023-03-01T00:40:49;105.00;;;55.60;;
73678;SDS011;61978;52.742;16.962;2023-03-01T00:43:15;104.80;;;55.50;;
73678;SDS011;61978;52.742;16.962;2023-03-01T00:45:41;108.20;;;58.50;;
73678;SDS011;61978;52.742;16.962;2023-03-01T00:48:07;107.50;;;57.00;;
73678;SDS011;61978;52.742;16.962;2023-03-01T00:50:33;113.90;;;62.30;;
73678;SDS011;61978;52.742;16.962;2023-03-01T00:52:59;113.40;;;62.60;;
73678;SDS011;61978;52.742;16.962;2023-03-01T00:55:26;111.80;;;59.90;;
73678;SDS011;61978;52.742;16.962;2023-03-01T00:57:52;112.60;;;61.60;;
73678;SDS011;61978;52.742;16.962;2023-03-01T01:00:19;116.60;;;63.50;;
73678;SDS011;61978;52.742;16.962;2023-03-01T01:02:47;118.70;;;62.50;;
73678;SDS011;61978;52.742;16.962;2023-03-01T01:05:14;118.60;;;62.00;;
73678;SDS011;61978;52.742;16.962;2023-03-01T01:07:40;114.00;;;62.10;;
73678;SDS011;61978;52.742;16.962;2023-03-01T01:10:06;151.40;;;75.50;;
73678;SDS011;61978;52.742;16.962;2023-03-01T01:12:33;133.20;;;71.00;;
73678;SDS011;61978;52.742;16.962;2023-03-01T01:14:59;131.10;;;67.60;;
73678;SDS011;61978;52.742;16.962;2023-03-01T01:17:25;135.10;;;70.80;;
73678;SDS011;61978;52.742;16.962;2023-03-01T01:19:51;126.20;;;66.10;;
73678;SDS011;61978;52.742;16.962;2023-03-01T01:22:17;123.60;;;64.40;;
73678;SDS011;61978;52.742;16.962;2023-03-01T01:24:43;117.00;;;62.50;;
73678;SDS011;61978;52.742;16.962;2023-03-01T01:27:09;113.40;;;60.00;;
73678;SDS011;61978;52.742;16.962;2023-03-01T01:29:35;107.60;;;62.00;;
73678;SDS011;61978;52.742;16.962;2023-03-01T01:32:02;113.50;;;60.10;;
73678;SDS011;61978;52.742;16.962;2023-03-01T01:34:27;120.80;;;63.40;;
73678;SDS011;61978;52.742;16.962;2023-03-01T01:36:53;118.70;;;61.60;;
73678;SDS011;61978;52.742;16.962;2023-03-01T01:39:20;121.90;;;62.70;;
73678;SDS011;61978;52.742;16.962;2023-03-01T01:41:47;117.80;;;62.60;;
73678;SDS011;61978;52.742;16.962;2023-03-01T01:44:15;119.70;;;63.40;;
73678;SDS011;61978;52.742;16.962;2023-03-01T01:46:59;145.00;;;77.20;;
73678;SDS011;61978;52.742;16.962;2023-03-01T01:49:28;147.40;;;75.00;;
73678;SDS011;61978;52.742;16.962;2023-03-01T01:52:17;139.10;;;71.70;;
73678;SDS011;61978;52.742;16.962;2023-03-01T01:54:44;125.00;;;66.00;;
73678;SDS011;61978;52.742;16.962;2023-03-01T01:57:13;113.40;;;62.60;;
73678;SDS011;61978;52.742;16.962;2023-03-01T01:59:40;110.20;;;62.00;;
73678;SDS011;61978;52.742;16.962;2023-03-01T02:02:08;116.90;;;61.70;;
73678;SDS011;61978;52.742;16.962;2023-03-01T02:04:34;115.60;;;60.70;;
73678;SDS011;61978;52.742;16.962;2023-03-01T02:07:01;117.00;;;61.90;;
73678;SDS011;61978;52.742;16.962;2023-03-01T02:09:28;117.00;;;62.50;;
73678;SDS011;61978;52.742;16.962;2023-03-01T02:11:56;115.50;;;61.10;;
73678;SDS011;61978;52.742;16.962;2023-03-01T02:14:23;117.70;;;63.00;;
73678;SDS011;61978;52.742;16.962;2023-03-01T02:16:49;119.90;;;63.80;;
73678;SDS011;61978;52.742;16.962;2023-03-01T02:20:02;115.60;;;62.70;;
73678;SDS011;61978;52.742;16.962;2023-03-01T02:30:11;117.30;;;61.30;;
73678;SDS011;61978;52.742;16.962;2023-03-01T02:32:40;107.70;;;60.20;;
73678;SDS011;61978;52.742;16.962;2023-03-01T02:35:12;121.50;;;62.50;;
73678;SDS011;61978;52.742;16.962;2023-03-01T02:37:39;117.00;;;61.40;;
73678;SDS011;61978;52.742;16.962;2023-03-01T02:40:08;118.00;;;61.50;;
73678;SDS011;61978;52.742;16.962;2023-03-01T02:42:52;125.30;;;64.70;;
73678;SDS011;61978;52.742;16.962;2023-03-01T02:45:19;108.50;;;61.50;;
73678;SDS011;61978;52.742;16.962;2023-03-01T02:47:45;119.00;;;66.40;;
73678;SDS011;61978;52.742;16.962;2023-03-01T02:52:57;114.60;;;60.30;;
73678;SDS011;61978;52.742;16.962;2023-03-01T02:55:27;120.40;;;61.30;;
73678;SDS011;61978;52.742;16.962;2023-03-01T02:57:54;108.50;;;61.40;;
73678;SDS011;61978;52.742;16.962;2023-03-01T03:00:31;111.30;;;60.00;;
73678;SDS011;61978;52.742;16.962;2023-03-01T03:03:00;105.20;;;58.30;;
73678;SDS011;61978;52.742;16.962;2023-03-01T03:05:28;109.00;;;58.10;;
73678;SDS011;61978;52.742;16.962;2023-03-01T03:07:56;119.30;;;59.10;;
73678;SDS011;61978;52.742;16.962;2023-03-01T03:10:23;127.80;;;67.00;;
73678;SDS011;61978;52.742;16.962;2023-03-01T03:12:54;116.80;;;61.20;;
73678;SDS011;61978;52.742;16.962;2023-03-01T03:15:21;117.00;;;65.90;;
73678;SDS011;61978;52.742;16.962;2023-03-01T03:17:48;119.20;;;65.70;;
73678;SDS011;61978;52.742;16.962;2023-03-01T03:20:16;127.10;;;65.40;;
73678;SDS011;61978;52.742;16.962;2023-03-01T03:22:48;117.70;;;65.20;;
73678;SDS011;61978;52.742;16.962;2023-03-01T03:25:16;129.60;;;67.30;;
73678;SDS011;61978;52.742;16.962;2023-03-01T03:27:43;132.30;;;63.20;;
73678;SDS011;61978;52.742;16.962;2023-03-01T03:30:13;141.30;;;64.90;;
73678;SDS011;61978;52.742;16.962;2023-03-01T03:32:40;128.30;;;68.30;;
73678;SDS011;61978;52.742;16.962;2023-03-01T03:35:07;130.70;;;66.90;;
73678;SDS011;61978;52.742;16.962;2023-03-01T03:37:39;124.60;;;67.40;;
73678;SDS011;61978;52.742;16.962;2023-03-01T03:40:24;132.00;;;68.70;;
73678;SDS011;61978;52.742;16.962;2023-03-01T03:42:50;137.30;;;72.40;;
73678;SDS011;61978;52.742;16.962;2023-03-01T03:45:16;144.50;;;70.70;;
73678;SDS011;61978;52.742;16.962;2023-03-01T03:47:42;126.50;;;64.90;;
73678;SDS011;61978;52.742;16.962;2023-03-01T03:50:13;129.30;;;66.00;;
73678;SDS011;61978;52.742;16.962;2023-03-01T03:52:40;128.50;;;65.50;;
73678;SDS011;61978;52.742;16.962;2023-03-01T03:55:06;131.00;;;68.20;;
73678;SDS011;61978;52.742;16.962;2023-03-01T03:57:40;122.70;;;64.10;;
73678;SDS011;61978;52.742;16.962;2023-03-01T04:00:09;126.50;;;66.20;;
73678;SDS011;61978;52.742;16.962;2023-03-01T04:02:41;154.30;;;81.00;;
73678;SDS011;61978;52.742;16.962;2023-03-01T04:05:08;154.50;;;77.00;;
73678;SDS011;61978;52.742;16.962;2023-03-01T04:07:35;142.90;;;71.80;;
73678;SDS011;61978;52.742;16.962;2023-03-01T04:10:02;165.40;;;82.60;;
73678;SDS011;61978;52.742;16.962;2023-03-01T04:12:28;135.60;;;66.50;;
73678;SDS011;61978;52.742;16.962;2023-03-01T04:14:54;124.60;;;63.80;;
73678;SDS011;61978;52.742;16.962;2023-03-01T04:17:20;112.90;;;61.10;;
73678;SDS011;61978;52.742;16.962;2023-03-01T04:19:46;112.60;;;59.90;;
73678;SDS011;61978;52.742;16.962;2023-03-01T04:22:14;123.40;;;64.10;;
73678;SDS011;61978;52.742;16.962;2023-03-01T04:24:44;123.20;;;61.40;;
73678;SDS011;61978;52.742;16.962;2023-03-01T04:27:10;116.60;;;61.20;;
73678;SDS011;61978;52.742;16.962;2023-03-01T04:29:36;108.00;;;58.70;;
73678;SDS011;61978;52.742;16.962;2023-03-01T04:32:02;111.40;;;60.40;;
73678;SDS011;61978;52.742;16.962;2023-03-01T04:34:29;104.00;;;57.20;;
73678;SDS011;61978;52.742;16.962;2023-03-01T04:36:55;104.10;;;55.20;;
73678;SDS011;61978;52.742;16.962;2023-03-01T04:39:21;111.20;;;57.80;;
73678;SDS011;61978;52.742;16.962;2023-03-01T04:41:48;99.20;;;54.30;;
73678;SDS011;61978;52.742;16.962;2023-03-01T04:44:14;89.90;;;48.00;;
73678;SDS011;61978;52.742;16.962;2023-03-01T04:46:40;95.80;;;49.10;;
73678;SDS011;61978;52.742;16.962;2023-03-01T04:49:06;86.70;;;46.60;;
73678;SDS011;61978;52.742;16.962;2023-03-01T04:51:32;90.00;;;47.80;;
73678;SDS011;61978;52.742;16.962;2023-03-01T04:53:58;91.80;;;48.30;;
73678;SDS011;61978;52.742;16.962;2023-03-01T04:56:25;103.30;;;51.20;;
73678;SDS011;61978;52.742;16.962;2023-03-01T04:58:53;88.50;;;46.60;;
73678;SDS011;61978;52.742;16.962;2023-03-01T05:01:19;92.70;;;46.90;;
73678;SDS011;61978;52.742;16.962;2023-03-01T05:03:47;79.10;;;45.30;;
73678;SDS011;61978;52.742;16.962;2023-03-01T05:06:14;89.70;;;45.50;;
73678;SDS011;61978;52.742;16.962;2023-03-01T05:08:41;85.40;;;45.20;;
73678;SDS011;61978;52.742;16.962;2023-03-01T05:11:08;92.70;;;44.60;;
73678;SDS011;61978;52.742;16.962;2023-03-01T05:13:34;84.60;;;45.60;;
73678;SDS011;61978;52.742;16.962;2023-03-01T05:16:01;78.00;;;44.10;;
73678;SDS011;61978;52.742;16.962;2023-03-01T05:18:29;76.90;;;43.40;;
73678;SDS011;61978;52.742;16.962;2023-03-01T05:21:00;89.30;;;44.80;;
73678;SDS011;61978;52.742;16.962;2023-03-01T05:23:27;84.80;;;44.70;;
73678;SDS011;61978;52.742;16.962;2023-03-01T05:25:56;83.40;;;43.00;;
73678;SDS011;61978;52.742;16.962;2023-03-01T05:28:23;81.80;;;42.40;;
73678;SDS011;61978;52.742;16.962;2023-03-01T05:30:49;79.40;;;42.40;;
73678;SDS011;61978;52.742;16.962;2023-03-01T05:33:17;81.80;;;41.90;;
73678;SDS011;61978;52.742;16.962;2023-03-01T05:35:44;81.40;;;43.20;;
73678;SDS011;61978;52.742;16.962;2023-03-01T05:38:12;75.00;;;40.50;;
73678;SDS011;61978;52.742;16.962;2023-03-01T05:40:41;73.60;;;40.50;;
73678;SDS011;61978;52.742;16.962;2023-03-01T05:43:08;71.70;;;41.00;;
73678;SDS011;61978;52.742;16.962;2023-03-01T05:45:35;73.00;;;40.60;;
73678;SDS011;61978;52.742;16.962;2023-03-01T05:48:01;82.00;;;43.30;;
73678;SDS011;61978;52.742;16.962;2023-03-01T05:50:28;78.80;;;42.80;;
73678;SDS011;61978;52.742;16.962;2023-03-01T05:52:58;71.90;;;42.40;;
73678;SDS011;61978;52.742;16.962;2023-03-01T05:55:27;85.70;;;44.80;;
73678;SDS011;61978;52.742;16.962;2023-03-01T05:57:53;75.10;;;44.70;;
73678;SDS011;61978;52.742;16.962;2023-03-01T06:00:20;80.70;;;41.40;;
73678;SDS011;61978;52.742;16.962;2023-03-01T06:02:48;86.20;;;43.70;;
73678;SDS011;61978;52.742;16.962;2023-03-01T06:05:15;75.30;;;42.40;;
73678;SDS011;61978;52.742;16.962;2023-03-01T06:07:40;73.50;;;41.90;;
73678;SDS011;61978;52.742;16.962;2023-03-01T06:10:07;77.40;;;42.20;;
73678;SDS011;61978;52.742;16.962;2023-03-01T06:12:34;73.30;;;42.20;;
73678;SDS011;61978;52.742;16.962;2023-03-01T06:15:00;84.00;;;44.90;;
73678;SDS011;61978;52.742;16.962;2023-03-01T06:17:31;182.80;;;84.50;;
73678;SDS011;61978;52.742;16.962;2023-03-01T06:19:57;359.70;;;161.30;;
73678;SDS011;61978;52.742;16.962;2023-03-01T06:22:23;294.50;;;134.80;;
73678;SDS011;61978;52.742;16.962;2023-03-01T06:24:49;261.90;;;119.90;;
73678;SDS011;61978;52.742;16.962;2023-03-01T06:27:15;355.10;;;156.80;;
73678;SDS011;61978;52.742;16.962;2023-03-01T06:29:41;426.60;;;192.10;;
73678;SDS011;61978;52.742;16.962;2023-03-01T06:32:07;404.80;;;179.00;;
73678;SDS011;61978;52.742;16.962;2023-03-01T06:34:33;435.00;;;196.80;;
73678;SDS011;61978;52.742;16.962;2023-03-01T06:36:59;375.00;;;156.50;;
73678;SDS011;61978;52.742;16.962;2023-03-01T06:39:27;207.70;;;92.60;;
73678;SDS011;61978;52.742;16.962;2023-03-01T06:41:53;152.10;;;68.20;;
73678;SDS011;61978;52.742;16.962;2023-03-01T06:44:19;235.60;;;103.20;;
73678;SDS011;61978;52.742;16.962;2023-03-01T06:46:44;176.80;;;80.80;;
73678;SDS011;61978;52.742;16.962;2023-03-01T06:49:10;199.70;;;87.60;;
73678;SDS011;61978;52.742;16.962;2023-03-01T06:51:36;181.60;;;79.10;;
73678;SDS011;61978;52.742;16.962;2023-03-01T06:54:03;101.00;;;46.30;;
73678;SDS011;61978;52.742;16.962;2023-03-01T06:56:29;241.40;;;98.00;;
73678;SDS011;61978;52.742;16.962;2023-03-01T06:58:55;167.00;;;73.80;;
73678;SDS011;61978;52.742;16.962;2023-03-01T07:01:22;240.30;;;92.00;;
73678;SDS011;61978;52.742;16.962;2023-03-01T07:03:48;344.80;;;117.80;;
73678;SDS011;61978;52.742;16.962;2023-03-01T07:06:14;124.30;;;52.20;;
73678;SDS011;61978;52.742;16.962;2023-03-01T07:08:40;72.90;;;38.90;;
73678;SDS011;61978;52.742;16.962;2023-03-01T07:11:06;63.70;;;33.40;;
73678;SDS011;61978;52.742;16.962;2023-03-01T07:13:33;51.20;;;27.60;;
73678;SDS011;61978;52.742;16.962;2023-03-01T07:15:59;50.60;;;27.80;;
73678;SDS011;61978;52.742;16.962;2023-03-01T07:18:25;47.30;;;26.70;;
73678;SDS011;61978;52.742;16.962;2023-03-01T07:20:50;51.80;;;27.20;;
73678;SDS011;61978;52.742;16.962;2023-03-01T07:23:16;49.80;;;27.80;;
73678;SDS011;61978;52.742;16.962;2023-03-01T07:25:42;48.50;;;25.10;;
73678;SDS011;61978;52.742;16.962;2023-03-01T07:28:08;47.80;;;26.50;;
73678;SDS011;61978;52.742;16.962;2023-03-01T07:30:34;42.90;;;25.30;;
73678;SDS011;61978;52.742;16.962;2023-03-01T07:33:00;49.80;;;24.70;;
73678;SDS011;61978;52.742;16.962;2023-03-01T07:35:26;42.80;;;22.70;;
73678;SDS011;61978;52.742;16.962;2023-03-01T07:37:53;36.20;;;22.50;;
73678;SDS011;61978;52.742;16.962;2023-03-01T07:40:19;40.60;;;22.90;;
73678;SDS011;61978;52.742;16.962;2023-03-01T07:42:45;39.00;;;21.60;;
73678;SDS011;61978;52.742;16.962;2023-03-01T07:45:11;42.90;;;22.60;;
73678;SDS011;61978;52.742;16.962;2023-03-01T07:47:38;40.00;;;21.00;;
73678;SDS011;61978;52.742;16.962;2023-03-01T07:50:05;45.00;;;25.60;;
73678;SDS011;61978;52.742;16.962;2023-03-01T07:52:31;41.00;;;22.30;;
73678;SDS011;61978;52.742;16.962;2023-03-01T07:54:58;39.30;;;22.40;;
73678;SDS011;61978;52.742;16.962;2023-03-01T07:57:24;40.00;;;23.40;;
73678;SDS011;61978;52.742;16.962;2023-03-01T07:59:50;42.30;;;24.00;;
73678;SDS011;61978;52.742;16.962;2023-03-01T08:02:15;36.20;;;21.80;;
73678;SDS011;61978;52.742;16.962;2023-03-01T08:04:41;418.90;;;269.90;;
73678;SDS011;61978;52.742;16.962;2023-03-01T08:07:07;68.10;;;41.20;;
73678;SDS011;61978;52.742;16.962;2023-03-01T08:09:37;39.30;;;22.50;;
73678;SDS011;61978;52.742;16.962;2023-03-01T08:12:03;35.00;;;20.50;;
73678;SDS011;61978;52.742;16.962;2023-03-01T08:14:30;38.50;;;22.40;;
73678;SDS011;61978;52.742;16.962;2023-03-01T08:16:56;34.10;;;21.10;;
73678;SDS011;61978;52.742;16.962;2023-03-01T08:19:22;31.60;;;18.10;;
73678;SDS011;61978;52.742;16.962;2023-03-01T08:21:48;36.40;;;21.50;;
73678;SDS011;61978;52.742;16.962;2023-03-01T08:24:14;26.30;;;17.00;;
73678;SDS011;61978;52.742;16.962;2023-03-01T08:26:40;37.90;;;20.10;;
73678;SDS011;61978;52.742;16.962;2023-03-01T08:29:06;41.10;;;18.60;;
73678;SDS011;61978;52.742;16.962;2023-03-01T08:31:35;27.50;;;15.00;;
73678;SDS011;61978;52.742;16.962;2023-03-01T08:34:03;25.90;;;16.40;;
73678;SDS011;61978;52.742;16.962;2023-03-01T08:36:31;29.70;;;14.90;;
73678;SDS011;61978;52.742;16.962;2023-03-01T08:38:57;27.60;;;14.00;;
73678;SDS011;61978;52.742;16.962;2023-03-01T08:41:23;31.90;;;16.90;;
73678;SDS011;61978;52.742;16.962;2023-03-01T08:43:49;26.50;;;16.10;;
73678;SDS011;61978;52.742;16.962;2023-03-01T08:46:18;26.80;;;15.50;;
73678;SDS011;61978;52.742;16.962;2023-03-01T08:48:45;24.10;;;13.10;;
73678;SDS011;61978;52.742;16.962;2023-03-01T08:51:15;22.30;;;12.40;;
73678;SDS011;61978;52.742;16.962;2023-03-01T08:53:41;23.20;;;14.40;;
73678;SDS011;61978;52.742;16.962;2023-03-01T08:56:07;20.90;;;10.70;;
73678;SDS011;61978;52.742;16.962;2023-03-01T08:58:33;20.50;;;11.40;;
73678;SDS011;61978;52.742;16.962;2023-03-01T09:00:59;23.20;;;12.50;;
73678;SDS011;61978;52.742;16.962;2023-03-01T09:03:26;19.50;;;11.70;;
73678;SDS011;61978;52.742;16.962;2023-03-01T09:05:53;22.70;;;11.40;;
73678;SDS011;61978;52.742;16.962;2023-03-01T09:08:19;16.80;;;9.50;;
73678;SDS011;61978;52.742;16.962;2023-03-01T09:10:45;19.30;;;9.20;;
73678;SDS011;61978;52.742;16.962;2023-03-01T09:13:11;17.10;;;10.20;;
73678;SDS011;61978;52.742;16.962;2023-03-01T09:15:37;19.20;;;10.50;;
73678;SDS011;61978;52.742;16.962;2023-03-01T09:18:03;20.60;;;10.10;;
73678;SDS011;61978;52.742;16.962;2023-03-01T09:20:30;11.90;;;7.00;;
73678;SDS011;61978;52.742;16.962;2023-03-01T09:22:56;12.50;;;7.40;;
73678;SDS011;61978;52.742;16.962;2023-03-01T09:25:23;10.20;;;6.50;;
73678;SDS011;61978;52.742;16.962;2023-03-01T09:27:52;9.90;;;5.70;;
73678;SDS011;61978;52.742;16.962;2023-03-01T09:30:18;14.20;;;5.30;;
73678;SDS011;61978;52.742;16.962;2023-03-01T09:32:44;14.00;;;4.90;;
73678;SDS011;61978;52.742;16.962;2023-03-01T09:35:11;10.20;;;5.00;;
73678;SDS011;61978;52.742;16.962;2023-03-01T09:37:37;12.30;;;5.90;;
73678;SDS011;61978;52.742;16.962;2023-03-01T09:40:08;11.00;;;5.30;;
73678;SDS011;61978;52.742;16.962;2023-03-01T09:42:49;12.00;;;6.20;;
73678;SDS011;61978;52.742;16.962;2023-03-01T09:47:55;11.20;;;6.00;;
73678;SDS011;61978;52.742;16.962;2023-03-01T09:50:21;11.30;;;5.40;;
73678;SDS011;61978;52.742;16.962;2023-03-01T09:52:50;12.50;;;6.50;;
73678;SDS011;61978;52.742;16.962;2023-03-01T09:55:26;45.50;;;24.00;;
73678;SDS011;61978;52.742;16.962;2023-03-01T10:00:20;11.40;;;6.00;;
73678;SDS011;61978;52.742;16.962;2023-03-01T10:02:52;16.10;;;9.10;;
73678;SDS011;61978;52.742;16.962;2023-03-01T10:08:26;22.00;;;15.30;;
73678;SDS011;61978;52.742;16.962;2023-03-01T10:10:54;9.30;;;5.60;;
73678;SDS011;61978;52.742;16.962;2023-03-01T10:13:45;13.20;;;7.90;;
73678;SDS011;61978;52.742;16.962;2023-03-01T10:16:17;17.90;;;9.10;;
73678;SDS011;61978;52.742;16.962;2023-03-01T10:18:47;11.20;;;6.00;;
73678;SDS011;61978;52.742;16.962;2023-03-01T10:21:18;10.60;;;5.90;;
73678;SDS011;61978;52.742;16.962;2023-03-01T10:23:45;11.70;;;5.50;;
73678;SDS011;61978;52.742;16.962;2023-03-01T10:29:03;13.00;;;8.80;;
73678;SDS011;61978;52.742;16.962;2023-03-01T10:32:12;7.80;;;4.60;;
73678;SDS011;61978;52.742;16.962;2023-03-01T10:34:19;9.90;;;5.90;;
73678;SDS011;61978;52.742;16.962;2023-03-01T10:36:49;12.90;;;6.20;;
73678;SDS011;61978;52.742;16.962;2023-03-01T10:39:20;11.50;;;6.30;;
73678;SDS011;61978;52.742;16.962;2023-03-01T10:41:54;9.60;;;6.10;;
73678;SDS011;61978;52.742;16.962;2023-03-01T10:47:08;15.50;;;6.30;;
73678;SDS011;61978;52.742;16.962;2023-03-01T10:49:38;15.50;;;7.50;;
73678;SDS011;61978;52.742;16.962;2023-03-01T10:52:20;11.20;;;6.90;;
73678;SDS011;61978;52.742;16.962;2023-03-01T10:57:39;15.60;;;8.10;;
73678;SDS011;61978;52.742;16.962;2023-03-01T11:00:24;15.40;;;8.20;;
73678;SDS011;61978;52.742;16.962;2023-03-01T11:05:23;18.60;;;8.70;;
73678;SDS011;61978;52.742;16.962;2023-03-01T11:07:56;15.40;;;9.00;;
73678;SDS011;61978;52.742;16.962;2023-03-01T11:10:24;12.50;;;8.40;;
73678;SDS011;61978;52.742;16.962;2023-03-01T11:12:51;13.90;;;8.80;;
73678;SDS011;61978;52.742;16.962;2023-03-01T11:15:22;18.10;;;10.50;;
73678;SDS011;61978;52.742;16.962;2023-03-01T11:17:49;12.90;;;7.90;;
73678;SDS011;61978;52.742;16.962;2023-03-01T11:20:19;16.80;;;10.30;;
73678;SDS011;61978;52.742;16.962;2023-03-01T11:22:50;16.20;;;10.20;;
73678;SDS011;61978;52.742;16.962;2023-03-01T11:25:17;16.00;;;9.30;;
73678;SDS011;61978;52.742;16.962;2023-03-01T11:27:47;20.20;;;9.90;;
73678;SDS011;61978;52.742;16.962;2023-03-01T11:32:53;16.90;;;10.10;;
73678;SDS011;61978;52.742;16.962;2023-03-01T11:35:26;15.80;;;9.00;;
73678;SDS011;61978;52.742;16.962;2023-03-01T11:40:39;14.20;;;8.60;;
73678;SDS011;61978;52.742;16.962;2023-03-01T11:43:28;14.40;;;8.20;;
73678;SDS011;61978;52.742;16.962;2023-03-01T11:48:36;18.10;;;8.40;;
73678;SDS011;61978;52.742;16.962;2023-03-01T11:51:17;18.50;;;8.70;;
73678;SDS011;61978;52.742;16.962;2023-03-01T11:53:57;14.20;;;7.70;;
73678;SDS011;61978;52.742;16.962;2023-03-01T11:56:35;19.40;;;8.50;;
73678;SDS011;61978;52.742;16.962;2023-03-01T11:59:17;13.50;;;8.40;;
73678;SDS011;61978;52.742;16.962;2023-03-01T12:07:14;12.20;;;5.80;;
73678;SDS011;61978;52.742;16.962;2023-03-01T12:10:17;9.40;;;5.60;;
73678;SDS011;61978;52.742;16.962;2023-03-01T12:20:30;11.20;;;6.10;;
73678;SDS011;61978;52.742;16.962;2023-03-01T12:23:02;23.60;;;10.00;;
73678;SDS011;61978;52.742;16.962;2023-03-01T12:25:41;11.60;;;6.20;;
73678;SDS011;61978;52.742;16.962;2023-03-01T12:36:05;9.20;;;6.00;;
73678;SDS011;61978;52.742;16.962;2023-03-01T12:51:11;10.40;;;6.40;;
73678;SDS011;61978;52.742;16.962;2023-03-01T12:53:42;11.90;;;6.60;;
73678;SDS011;61978;52.742;16.962;2023-03-01T12:56:13;12.10;;;7.20;;
73678;SDS011;61978;52.742;16.962;2023-03-01T12:58:51;14.90;;;8.50;;
73678;SDS011;61978;52.742;16.962;2023-03-01T13:01:26;12.90;;;7.80;;
73678;SDS011;61978;52.742;16.962;2023-03-01T13:11:45;18.60;;;8.70;;
73678;SDS011;61978;52.742;16.962;2023-03-01T13:16:46;13.80;;;9.20;;
73678;SDS011;61978;52.742;16.962;2023-03-01T13:19:24;20.20;;;12.00;;
73678;SDS011;61978;52.742;16.962;2023-03-01T13:21:51;14.30;;;8.60;;
73678;SDS011;61978;52.742;16.962;2023-03-01T13:25:03;16.60;;;8.80;;
73678;SDS011;61978;52.742;16.962;2023-03-01T13:27:10;20.60;;;11.40;;
73678;SDS011;61978;52.742;16.962;2023-03-01T13:29:46;14.20;;;8.80;;
73678;SDS011;61978;52.742;16.962;2023-03-01T13:32:20;25.80;;;14.70;;
73678;SDS011;61978;52.742;16.962;2023-03-01T13:34:47;14.80;;;9.00;;
73678;SDS011;61978;52.742;16.962;2023-03-01T13:37:21;17.60;;;10.40;;
73678;SDS011;61978;52.742;16.962;2023-03-01T13:39:48;16.80;;;10.20;;
73678;SDS011;61978;52.742;16.962;2023-03-01T13:42:31;16.50;;;10.20;;
73678;SDS011;61978;52.742;16.962;2023-03-01T13:44:57;16.70;;;9.80;;
73678;SDS011;61978;52.742;16.962;2023-03-01T13:47:24;15.60;;;10.90;;
73678;SDS011;61978;52.742;16.962;2023-03-01T13:50:00;25.30;;;13.40;;
73678;SDS011;61978;52.742;16.962;2023-03-01T13:54:52;16.80;;;10.50;;
73678;SDS011;61978;52.742;16.962;2023-03-01T13:57:21;17.00;;;10.60;;
73678;SDS011;61978;52.742;16.962;2023-03-01T13:59:48;22.80;;;11.40;;
73678;SDS011;61978;52.742;16.962;2023-03-01T14:02:14;16.80;;;10.70;;
73678;SDS011;61978;52.742;16.962;2023-03-01T14:04:40;129.30;;;63.00;;
73678;SDS011;61978;52.742;16.962;2023-03-01T14:07:16;28.50;;;13.20;;
73678;SDS011;61978;52.742;16.962;2023-03-01T14:09:44;268.60;;;128.00;;
73678;SDS011;61978;52.742;16.962;2023-03-01T14:14:39;41.00;;;34.40;;
73678;SDS011;61978;52.742;16.962;2023-03-01T14:19:58;17.60;;;10.80;;
73678;SDS011;61978;52.742;16.962;2023-03-01T14:27:21;17.50;;;11.40;;
73678;SDS011;61978;52.742;16.962;2023-03-01T14:29:59;19.90;;;10.90;;
73678;SDS011;61978;52.742;16.962;2023-03-01T14:34:52;140.00;;;74.10;;
73678;SDS011;61978;52.742;16.962;2023-03-01T14:37:19;31.90;;;20.30;;
73678;SDS011;61978;52.742;16.962;2023-03-01T14:39:46;29.70;;;14.20;;
73678;SDS011;61978;52.742;16.962;2023-03-01T14:42:12;15.00;;;9.90;;
73678;SDS011;61978;52.742;16.962;2023-03-01T14:44:40;23.80;;;15.50;;
73678;SDS011;61978;52.742;16.962;2023-03-01T14:47:10;23.50;;;15.40;;
73678;SDS011;61978;52.742;16.962;2023-03-01T14:49:38;14.60;;;9.60;;
73678;SDS011;61978;52.742;16.962;2023-03-01T14:52:06;16.50;;;8.30;;
73678;SDS011;61978;52.742;16.962;2023-03-01T14:54:44;16.80;;;8.70;;
73678;SDS011;61978;52.742;16.962;2023-03-01T14:57:19;15.70;;;9.10;;
73678;SDS011;61978;52.742;16.962;2023-03-01T14:59:47;17.90;;;9.30;;
73678;SDS011;61978;52.742;16.962;2023-03-01T15:02:17;20.90;;;9.30;;
73678;SDS011;61978;52.742;16.962;2023-03-01T15:07:43;25.40;;;9.80;;
73678;SDS011;61978;52.742;16.962;2023-03-01T15:10:26;14.40;;;9.30;;
73678;SDS011;61978;52.742;16.962;2023-03-01T15:12:52;62.00;;;29.90;;
73678;SDS011;61978;52.742;16.962;2023-03-01T15:15:20;15.30;;;9.30;;
73678;SDS011;61978;52.742;16.962;2023-03-01T15:17:48;19.30;;;9.50;;
73678;SDS011;61978;52.742;16.962;2023-03-01T15:20:17;18.80;;;9.90;;
73678;SDS011;61978;52.742;16.962;2023-03-01T15:22:43;15.80;;;9.50;;
73678;SDS011;61978;52.742;16.962;2023-03-01T15:25:17;15.70;;;8.90;;
73678;SDS011;61978;52.742;16.962;2023-03-01T15:27:46;18.10;;;9.90;;
73678;SDS011;61978;52.742;16.962;2023-03-01T15:30:13;22.20;;;9.00;;
73678;SDS011;61978;52.742;16.962;2023-03-01T15:32:43;19.10;;;10.00;;
73678;SDS011;61978;52.742;16.962;2023-03-01T15:37:54;18.40;;;8.30;;
73678;SDS011;61978;52.742;16.962;2023-03-01T15:40:26;16.80;;;10.00;;
73678;SDS011;61978;52.742;16.962;2023-03-01T15:42:59;19.70;;;11.90;;
73678;SDS011;61978;52.742;16.962;2023-03-01T15:45:26;17.30;;;9.80;;
73678;SDS011;61978;52.742;16.962;2023-03-01T15:47:56;16.90;;;8.90;;
73678;SDS011;61978;52.742;16.962;2023-03-01T15:50:27;14.60;;;9.00;;
73678;SDS011;61978;52.742;16.962;2023-03-01T15:52:53;20.20;;;12.30;;
73678;SDS011;61978;52.742;16.962;2023-03-01T15:55:30;13.10;;;9.20;;
73678;SDS011;61978;52.742;16.962;2023-03-01T15:58:20;22.40;;;11.10;;